createdAt,value
2022-08-27T00:00:19.362Z,100208.19
2022-08-27T00:02:54.924Z,100208.53
2022-08-27T00:05:30.797Z,100211.03
2022-08-27T00:08:04.182Z,100208.19
2022-08-27T00:10:34.376Z,100208.19
2022-08-27T00:13:08.135Z,100201.25
2022-08-27T00:15:39.266Z,100209.78
2022-08-27T00:18:15.222Z,100211.84
2022-08-27T00:20:53.220Z,100209.44
2022-08-27T00:23:25.986Z,100206.16
2022-08-27T00:26:01.822Z,100205.34
2022-08-27T00:28:44.248Z,100197.63
2022-08-27T00:31:23.706Z,100203.31
2022-08-27T00:34:08.672Z,100195.19
2022-08-27T00:36:47.401Z,100191.13
2022-08-27T00:39:20.340Z,100199.66
2022-08-27T00:42:01.688Z,100193.97
2022-08-27T00:44:33.641Z,100186.41
2022-08-27T00:47:13.838Z,100193.97
2022-08-27T00:49:57.971Z,100189.50
2022-08-27T00:52:43.252Z,100193.53
2022-08-27T00:55:21.487Z,100188.63
2022-08-27T00:58:19.214Z,100194.31
2022-08-27T01:00:50.030Z,100199.22
2022-08-27T01:03:22.893Z,100200.84
2022-08-27T01:05:53.315Z,100189.88
2022-08-27T01:08:30.084Z,100202.06
2022-08-27T01:11:02.514Z,100201.16
2022-08-27T01:13:44.210Z,100200.00
2022-08-27T01:16:43.490Z,100207.16
2022-08-27T01:19:35.150Z,100201.00
2022-08-27T01:22:38.544Z,100197.34
2022-08-27T01:25:16.662Z,100188.38
2022-08-27T01:27:51.342Z,100192.81
2022-08-27T01:30:27.911Z,100193.19
2022-08-27T01:33:01.031Z,100195.94
2022-08-27T01:35:35.962Z,100198.81
2022-08-27T01:38:18.856Z,100201.66
2022-08-27T01:41:07.522Z,100199.22
2022-08-27T01:43:45.923Z,100200.03
2022-08-27T01:46:27.483Z,100197.53
2022-08-27T01:49:05.319Z,100201.97
2022-08-27T01:51:43.962Z,100199.13
2022-08-27T01:54:20.249Z,100202.81
2022-08-27T01:56:53.260Z,100201.19
2022-08-27T01:59:39.529Z,100203.59
2022-08-27T02:02:13.032Z,100205.38
2022-08-27T02:04:44.657Z,100210.91
2022-08-27T02:07:23.932Z,100215.69
2022-08-27T02:09:59.033Z,100207.25
2022-08-27T02:12:39.719Z,100211.34
2022-08-27T02:15:14.493Z,100206.53
2022-08-27T02:17:50.290Z,100210.09
2022-08-27T02:20:29.340Z,100210.09
2022-08-27T02:23:09.327Z,100209.63
2022-08-27T02:25:44.427Z,100213.75
2022-08-27T02:28:21.627Z,100202.06
2022-08-27T02:30:59.095Z,100213.03
2022-08-27T02:33:33.439Z,100207.34
2022-08-27T02:36:12.182Z,100214.25
2022-08-27T02:38:50.589Z,100211.88
2022-08-27T02:41:28.679Z,100208.31
2022-08-27T02:44:01.469Z,100206.25
2022-08-27T02:46:41.738Z,100210.38
2022-08-27T02:49:20.004Z,100207.94
2022-08-27T02:52:01.046Z,100211.25
2022-08-27T02:54:35.046Z,100219.78
2022-08-27T02:57:09.307Z,100215.78
2022-08-27T02:59:49.002Z,100214.53
2022-08-27T03:02:27.644Z,100215.31
2022-08-27T03:05:06.561Z,100203.31
2022-08-27T03:07:45.831Z,100210.50
2022-08-27T03:10:19.430Z,100216.19
2022-08-27T03:12:58.903Z,100215.84
2022-08-27T03:15:31.978Z,100209.38
2022-08-27T03:18:21.710Z,100202.84
2022-08-27T03:21:00.653Z,100197.63
2022-08-27T03:23:41.406Z,100194.84
2022-08-27T03:26:14.716Z,100199.66
2022-08-27T03:28:49.817Z,100196.81
2022-08-27T03:31:32.142Z,100200.09
2022-08-27T03:34:10.933Z,100192.91
2022-08-27T03:36:43.750Z,100192.81
2022-08-27T03:39:24.860Z,100191.13
2022-08-27T03:41:57.737Z,100196.03
2022-08-27T03:44:32.795Z,100195.19
2022-08-27T03:47:10.867Z,100200.09
2022-08-27T03:49:50.201Z,100180.63
2022-08-27T03:52:21.025Z,100184.69
2022-08-27T03:54:54.239Z,100191.13
2022-08-27T03:57:31.357Z,100183.81
2022-08-27T04:00:12.761Z,100186.31
2022-08-27T04:02:50.005Z,100180.63
2022-08-27T04:05:22.630Z,100189.97
2022-08-27T04:07:55.594Z,100180.63
2022-08-27T04:10:35.020Z,100182.22
2022-08-27T04:13:14.306Z,100185.88
2022-08-27T04:15:54.335Z,100171.28
2022-08-27T04:18:25.328Z,100183.81
2022-08-27T04:20:59.164Z,100175.38
2022-08-27T04:23:31.964Z,100176.25
2022-08-27T04:26:16.819Z,100176.16
2022-08-27T04:28:48.605Z,100179.47
2022-08-27T04:31:30.056Z,100181.84
2022-08-27T04:34:08.159Z,100177.78
2022-08-27T04:36:47.584Z,100183.47
2022-08-27T04:39:20.703Z,100177.41
2022-08-27T04:41:58.997Z,100176.97
2022-08-27T04:44:38.147Z,100189.16
2022-08-27T04:47:09.337Z,100186.31
2022-08-27T04:49:45.335Z,100192.81
2022-08-27T04:52:24.899Z,100194.41
2022-08-27T04:54:58.530Z,100198.50
2022-08-27T04:57:34.902Z,100198.94
2022-08-27T05:00:11.544Z,100199.75
2022-08-27T05:02:48.146Z,100203.41
2022-08-27T05:05:30.428Z,100200.56
2022-08-27T05:08:11.345Z,100199.38
2022-08-27T05:10:48.522Z,100194.84
2022-08-27T05:13:30.562Z,100200.88
2022-08-27T05:16:08.397Z,100188.72
2022-08-27T05:18:48.611Z,100205.00
2022-08-27T05:21:31.992Z,100207.41
2022-08-27T05:24:08.476Z,100200.09
2022-08-27T05:26:50.737Z,100208.19
2022-08-27T05:29:26.184Z,100220.81
2022-08-27T05:32:06.247Z,100223.66
2022-08-27T05:34:39.280Z,100223.31
2022-08-27T05:37:18.813Z,100212.72
2022-08-27T05:39:54.553Z,100224.09
2022-08-27T05:42:32.256Z,100221.25
2022-08-27T05:45:07.556Z,100222.06
2022-08-27T05:47:40.946Z,100229.34
2022-08-27T05:50:26.086Z,100218.84
2022-08-27T05:52:59.912Z,100230.50
2022-08-27T05:55:30.381Z,100237.00
2022-08-27T05:58:26.632Z,100239.06
2022-08-27T06:01:10.516Z,100240.69
2022-08-27T06:03:41.851Z,100240.22
2022-08-27T06:06:18.113Z,100232.94
2022-08-27T06:08:49.283Z,100226.34
2022-08-27T06:11:19.726Z,100231.59
2022-08-27T06:13:53.009Z,100229.91
2022-08-27T06:16:26.400Z,100228.25
2022-08-27T06:18:59.451Z,100239.63
2022-08-27T06:21:30.494Z,100240.34
2022-08-27T06:24:07.316Z,100254.19
2022-08-27T06:26:50.873Z,100268.88
2022-08-27T06:29:24.288Z,100290.78
2022-08-27T06:31:57.471Z,100296.81
2022-08-27T06:34:33.391Z,100298.88
2022-08-27T06:37:08.167Z,100296.81
2022-08-27T06:39:40.528Z,100290.31
2022-08-27T06:42:17.933Z,100291.56
2022-08-27T06:44:55.712Z,100269.69
2022-08-27T06:47:31.466Z,100267.22
2022-08-27T06:50:02.348Z,100268.00
2022-08-27T06:52:40.100Z,100274.50
2022-08-27T06:55:15.949Z,100276.53
2022-08-27T06:57:51.637Z,100271.72
2022-08-27T07:00:25.449Z,100280.19
2022-08-27T07:03:04.030Z,100281.44
2022-08-27T07:05:45.560Z,100280.66
2022-08-27T07:08:19.121Z,100280.19
2022-08-27T07:10:55.889Z,100270.84
2022-08-27T07:13:30.374Z,100273.69
2022-08-27T07:16:13.672Z,100266.75
2022-08-27T07:18:46.080Z,100272.44
2022-08-27T07:21:22.754Z,100271.66
2022-08-27T07:24:00.400Z,100282.56
2022-08-27T07:26:41.343Z,100291.56
2022-08-27T07:29:15.228Z,100287.56
2022-08-27T07:31:46.050Z,100289.09
2022-08-27T07:34:21.444Z,100276.09
2022-08-27T07:36:51.816Z,100262.81
2022-08-27T07:39:27.720Z,100274.03
2022-08-27T07:42:16.690Z,100274.41
2022-08-27T07:44:46.723Z,100264.63
2022-08-27T07:47:24.929Z,100266.25
2022-08-27T07:49:57.916Z,100274.78
2022-08-27T07:52:27.757Z,100270.69
2022-08-27T07:55:02.758Z,100285.72
2022-08-27T07:57:44.981Z,100290.59
2022-08-27T08:00:13.548Z,100280.38
2022-08-27T08:02:49.565Z,100275.13
2022-08-27T08:05:26.604Z,100269.44
2022-08-27T08:08:05.337Z,100273.09
2022-08-27T08:10:49.159Z,100278.78
2022-08-27T08:13:27.393Z,100285.28
2022-08-27T08:15:59.624Z,100296.31
2022-08-27T08:18:35.761Z,100290.69
2022-08-27T08:21:12.563Z,100302.38
2022-08-27T08:23:44.187Z,100310.13
2022-08-27T08:26:19.733Z,100309.28
2022-08-27T08:28:55.413Z,100313.75
2022-08-27T08:31:31.831Z,100312.97
2022-08-27T08:34:07.302Z,100311.34
2022-08-27T08:36:40.557Z,100313.00
2022-08-27T08:39:15.950Z,100324.78
2022-08-27T08:41:59.129Z,100332.94
2022-08-27T08:44:45.523Z,100340.25
2022-08-27T08:47:40.610Z,100340.25
2022-08-27T08:50:19.566Z,100351.66
2022-08-27T08:52:56.052Z,100363.03
2022-08-27T08:55:52.550Z,100377.28
2022-08-27T08:58:36.237Z,100381.34
2022-08-27T09:01:08.673Z,100389.53
2022-08-27T09:03:53.589Z,100388.28
2022-08-27T09:06:51.071Z,100400.94
2022-08-27T09:09:54.863Z,100397.69
2022-08-27T09:12:30.662Z,100393.25
2022-08-27T09:15:21.770Z,100396.53
2022-08-27T09:18:17.793Z,100424.56
2022-08-27T09:21:17.857Z,100437.56
2022-08-27T09:24:07.008Z,100449.41
2022-08-27T09:26:43.617Z,100456.75
2022-08-27T09:29:20.316Z,100433.69
2022-08-27T09:32:06.513Z,100431.13
2022-08-27T09:34:46.653Z,100442.94
2022-08-27T09:37:34.333Z,100460.47
2022-08-27T09:40:27.549Z,100482.00
2022-08-27T09:43:08.770Z,100502.78
2022-08-27T09:45:52.772Z,100512.97
2022-08-27T09:48:33.099Z,100523.53
2022-08-27T09:51:10.004Z,100489.00
2022-08-27T09:54:08.155Z,100497.09
2022-08-27T09:56:47.745Z,100495.66
2022-08-27T09:59:55.464Z,100487.03
2022-08-27T10:02:34.682Z,100464.69
2022-08-27T10:05:32.312Z,100460.25
2022-08-27T10:08:10.635Z,100474.09
2022-08-27T10:11:02.302Z,100498.50
2022-08-27T10:14:04.413Z,100480.63
2022-08-27T10:17:15.861Z,100479.44
2022-08-27T10:20:10.301Z,100484.63
2022-08-27T10:23:03.024Z,100479.44
2022-08-27T10:25:59.070Z,100473.31
2022-08-27T10:28:58.325Z,100468.41
2022-08-27T10:31:50.180Z,100466.38
2022-08-27T10:34:43.307Z,100460.81
2022-08-27T10:37:36.645Z,100459.53
2022-08-27T10:40:27.430Z,100443.25
2022-08-27T10:43:18.549Z,100426.53
2022-08-27T10:45:59.108Z,100416.38
2022-08-27T10:48:36.555Z,100421.28
2022-08-27T10:51:21.821Z,100432.66
2022-08-27T10:54:24.471Z,100450.53
2022-08-27T10:57:53.949Z,100464.41
2022-08-27T11:00:40.261Z,100465.56
2022-08-27T11:03:16.926Z,100459.59
2022-08-27T11:05:52.145Z,100469.28
2022-08-27T11:08:24.116Z,100468.06
2022-08-27T11:11:56.961Z,100464.41
2022-08-27T11:14:17.506Z,100464.41
2022-08-27T11:16:52.104Z,100464.41
2022-08-27T11:19:34.328Z,100469.34
2022-08-27T11:22:25.968Z,100468.94
2022-08-27T11:25:07.202Z,100476.28
2022-08-27T11:27:49.139Z,100485.28
2022-08-27T11:30:35.048Z,100501.09
2022-08-27T11:33:17.658Z,100501.50
2022-08-27T11:36:28.303Z,100499.50
2022-08-27T11:39:12.120Z,100481.25
2022-08-27T11:41:45.052Z,100470.66
2022-08-27T11:44:25.565Z,100470.66
2022-08-27T11:47:32.156Z,100469.06
2022-08-27T11:50:20.529Z,100467.44
2022-08-27T11:53:02.724Z,100446.41
2022-08-27T11:55:45.448Z,100445.53
2022-08-27T11:58:22.011Z,100438.97
2022-08-27T12:01:03.806Z,100428.84
2022-08-27T12:03:40.370Z,100409.88
2022-08-27T12:06:29.815Z,100416.28
2022-08-27T12:09:14.516Z,100408.22
2022-08-27T12:11:56.679Z,100404.56
2022-08-27T12:14:36.030Z,100415.50
2022-08-27T12:17:28.326Z,100417.97
2022-08-27T12:20:10.776Z,100413.91
2022-08-27T12:23:30.580Z,100424.47
2022-08-27T12:26:23.982Z,100432.16
2022-08-27T12:29:27.817Z,100435.78
2022-08-27T12:32:15.655Z,100431.31
2022-08-27T12:34:49.788Z,100429.72
2022-08-27T12:37:28.828Z,100431.31
2022-08-27T12:40:15.128Z,100435.00
2022-08-27T12:43:10.666Z,100430.50
2022-08-27T12:45:56.928Z,100413.44
2022-08-27T12:48:43.480Z,100417.53
2022-08-27T12:51:26.062Z,100421.97
2022-08-27T12:54:03.832Z,100413.91
2022-08-27T12:57:01.046Z,100410.25
2022-08-27T12:59:55.194Z,100402.94
2022-08-27T13:02:31.729Z,100385.44
2022-08-27T13:05:13.221Z,100388.28
2022-08-27T13:07:55.524Z,100395.19
2022-08-27T13:10:33.244Z,100394.78
2022-08-27T13:13:16.687Z,100389.09
2022-08-27T13:15:58.709Z,100392.34
2022-08-27T13:18:35.691Z,100391.56
2022-08-27T13:21:38.337Z,100383.41
2022-08-27T13:24:13.218Z,100382.94
2022-08-27T13:26:57.286Z,100374.88
2022-08-27T13:29:33.650Z,100375.28
2022-08-27T13:32:13.568Z,100356.28
2022-08-27T13:34:50.902Z,100342.88
2022-08-27T13:37:47.100Z,100337.16
2022-08-27T13:40:30.552Z,100348.09
2022-08-27T13:43:04.945Z,100341.59
2022-08-27T13:45:42.998Z,100330.22
2022-08-27T13:48:18.232Z,100333.84
2022-08-27T13:50:58.391Z,100336.28
2022-08-27T13:53:52.746Z,100344.00
2022-08-27T13:56:36.026Z,100334.56
2022-08-27T13:59:24.042Z,100329.34
2022-08-27T14:02:04.577Z,100327.28
2022-08-27T14:04:50.875Z,100317.50
2022-08-27T14:07:40.416Z,100310.22
2022-08-27T14:10:28.911Z,100314.31
2022-08-27T14:13:08.675Z,100316.78
2022-08-27T14:15:50.197Z,100311.03
2022-08-27T14:18:48.050Z,100312.69
2022-08-27T14:21:27.502Z,100314.31
2022-08-27T14:24:04.151Z,100312.28
2022-08-27T14:26:47.394Z,100312.69
2022-08-27T14:29:20.224Z,100320.00
2022-08-27T14:31:53.990Z,100315.13
2022-08-27T14:34:28.887Z,100330.94
2022-08-27T14:37:04.975Z,100333.44
2022-08-27T14:39:35.247Z,100337.06
2022-08-27T14:42:10.168Z,100331.72
2022-08-27T14:44:47.859Z,100345.97
2022-08-27T14:47:20.997Z,100344.75
2022-08-27T14:49:58.366Z,100352.81
2022-08-27T14:52:35.259Z,100353.28
2022-08-27T14:55:10.510Z,100346.78
2022-08-27T14:57:47.000Z,100343.13
2022-08-27T15:00:17.155Z,100345.97
2022-08-27T15:02:56.444Z,100353.28
2022-08-27T15:05:32.953Z,100354.06
2022-08-27T15:08:05.433Z,100344.75
2022-08-27T15:10:39.119Z,100350.78
2022-08-27T15:13:11.423Z,100355.25
2022-08-27T15:15:42.222Z,100346.72
2022-08-27T15:18:17.981Z,100347.13
2022-08-27T15:20:52.238Z,100341.81
2022-08-27T15:23:24.720Z,100340.19
2022-08-27T15:26:00.281Z,100325.31
2022-08-27T15:28:33.311Z,100326.91
2022-08-27T15:31:06.117Z,100336.19
2022-08-27T15:33:45.891Z,100330.50
2022-08-27T15:36:22.133Z,100334.50
2022-08-27T15:38:57.460Z,100316.72
2022-08-27T15:41:30.491Z,100332.47
2022-08-27T15:44:08.093Z,100323.56
2022-08-27T15:46:47.402Z,100321.09
2022-08-27T15:49:19.829Z,100320.72
2022-08-27T15:51:55.832Z,100322.31
2022-08-27T15:54:35.475Z,100323.50
2022-08-27T15:57:09.850Z,100313.00
2022-08-27T15:59:46.201Z,100319.84
2022-08-27T16:02:33.772Z,100323.06
2022-08-27T16:05:07.602Z,100319.78
2022-08-27T16:07:41.213Z,100314.09
2022-08-27T16:10:14.113Z,100304.75
2022-08-27T16:12:46.038Z,100295.41
2022-08-27T16:15:19.924Z,100298.25
2022-08-27T16:17:50.571Z,100305.53
2022-08-27T16:20:26.771Z,100307.59
2022-08-27T16:23:00.117Z,100314.88
2022-08-27T16:25:32.955Z,100301.91
2022-08-27T16:28:10.721Z,100309.56
2022-08-27T16:30:49.324Z,100315.69
2022-08-27T16:33:24.242Z,100321.28
2022-08-27T16:35:55.410Z,100319.69
2022-08-27T16:38:28.536Z,100328.59
2022-08-27T16:41:01.922Z,100326.97
2022-08-27T16:43:33.643Z,100325.31
2022-08-27T16:46:06.605Z,100317.94
2022-08-27T16:49:01.275Z,100336.63
2022-08-27T16:51:39.499Z,100326.06
2022-08-27T16:54:18.048Z,100342.22
2022-08-27T16:56:50.930Z,100338.59
2022-08-27T16:59:26.138Z,100350.75
2022-08-27T17:02:02.299Z,100340.63
2022-08-27T17:04:36.799Z,100341.44
2022-08-27T17:07:14.674Z,100339.84
2022-08-27T17:09:50.513Z,100351.66
2022-08-27T17:12:27.705Z,100360.63
2022-08-27T17:15:03.875Z,100362.69
2022-08-27T17:17:34.133Z,100369.97
2022-08-27T17:20:11.202Z,100372.03
2022-08-27T17:22:44.122Z,100372.03
2022-08-27T17:25:19.429Z,100385.44
2022-08-27T17:27:58.066Z,100376.19
2022-08-27T17:30:33.899Z,100381.81
2022-08-27T17:33:10.045Z,100385.06
2022-08-27T17:35:46.958Z,100382.69
2022-08-27T17:38:22.070Z,100385.94
2022-08-27T17:40:54.681Z,100382.31
2022-08-27T17:43:33.264Z,100396.53
2022-08-27T17:46:13.711Z,100390.53
2022-08-27T17:48:43.879Z,100400.63
2022-08-27T17:51:22.432Z,100392.88
2022-08-27T17:54:00.819Z,100390.03
2022-08-27T17:56:31.557Z,100385.59
2022-08-27T17:59:04.787Z,100384.81
2022-08-27T18:01:41.502Z,100383.19
2022-08-27T18:04:15.071Z,100379.91
2022-08-27T18:06:51.445Z,100386.81
2022-08-27T18:09:28.219Z,100385.59
2022-08-27T18:12:06.893Z,100384.81
2022-08-27T18:14:43.290Z,100384.03
2022-08-27T18:17:21.016Z,100385.22
2022-08-27T18:19:51.406Z,100384.44
2022-08-27T18:22:26.493Z,100388.94
2022-08-27T18:25:02.161Z,100397.06
2022-08-27T18:27:39.042Z,100391.00
2022-08-27T18:30:19.192Z,100390.19
2022-08-27T18:32:54.842Z,100389.81
2022-08-27T18:35:27.954Z,100394.63
2022-08-27T18:37:58.668Z,100399.53
2022-08-27T18:40:30.443Z,100392.25
2022-08-27T18:43:03.828Z,100399.94
2022-08-27T18:45:42.222Z,100399.53
2022-08-27T18:48:24.206Z,100399.94
2022-08-27T18:50:58.565Z,100401.19
2022-08-27T18:53:34.486Z,100404.41
2022-08-27T18:56:16.890Z,100401.19
2022-08-27T18:58:52.513Z,100402.06
2022-08-27T19:01:31.981Z,100401.66
2022-08-27T19:04:03.799Z,100413.03
2022-08-27T19:06:40.215Z,100418.28
2022-08-27T19:09:10.616Z,100427.25
2022-08-27T19:11:40.497Z,100424.41
2022-08-27T19:14:16.181Z,100423.59
2022-08-27T19:16:56.133Z,100423.16
2022-08-27T19:19:27.450Z,100411.41
2022-08-27T19:22:00.814Z,100425.22
2022-08-27T19:24:41.765Z,100415.50
2022-08-27T19:27:14.891Z,100425.63
2022-08-27T19:29:51.571Z,100434.16
2022-08-27T19:32:30.158Z,100434.16
2022-08-27T19:35:01.048Z,100438.25
2022-08-27T19:37:38.323Z,100446.78
2022-08-27T19:40:12.863Z,100443.16
2022-08-27T19:42:44.667Z,100435.13
2022-08-27T19:45:23.302Z,100451.31
2022-08-27T19:47:58.433Z,100449.72
2022-08-27T19:50:35.593Z,100440.03
2022-08-27T19:53:13.408Z,100449.25
2022-08-27T19:55:52.841Z,100448.91
2022-08-27T19:58:23.811Z,100449.25
2022-08-27T20:00:54.185Z,100456.56
2022-08-27T20:03:29.534Z,100456.19
2022-08-27T20:06:10.882Z,100459.50
2022-08-27T20:08:43.839Z,100454.59
2022-08-27T20:11:17.977Z,100455.78
2022-08-27T20:13:56.339Z,100461.09
2022-08-27T20:16:37.675Z,100462.34
2022-08-27T20:19:13.992Z,100458.28
2022-08-27T20:21:47.101Z,100459.06
2022-08-27T20:24:22.785Z,100462.34
2022-08-27T20:26:53.325Z,100462.38
2022-08-27T20:29:32.742Z,100461.53
2022-08-27T20:32:04.573Z,100466.00
2022-08-27T20:34:37.623Z,100458.69
2022-08-27T20:37:13.188Z,100462.38
2022-08-27T20:39:51.187Z,100458.28
2022-08-27T20:42:27.395Z,100468.06
2022-08-27T20:45:11.237Z,100460.75
2022-08-27T20:47:46.737Z,100459.53
2022-08-27T20:50:26.369Z,100467.59
2022-08-27T20:53:04.822Z,100471.69
2022-08-27T20:55:35.159Z,100474.16
2022-08-27T20:58:29.277Z,100475.34
2022-08-27T21:01:05.892Z,100469.34
2022-08-27T21:03:43.323Z,100477.81
2022-08-27T21:06:17.889Z,100464.09
2022-08-27T21:08:53.932Z,100472.19
2022-08-27T21:11:32.317Z,100482.69
2022-08-27T21:14:11.866Z,100485.13
2022-08-27T21:16:43.519Z,100486.78
2022-08-27T21:19:21.271Z,100492.03
2022-08-27T21:21:56.190Z,100492.03
2022-08-27T21:24:31.127Z,100483.16
2022-08-27T21:27:06.298Z,100490.44
2022-08-27T21:29:44.583Z,100492.03
2022-08-27T21:32:18.160Z,100492.47
2022-08-27T21:34:56.941Z,100498.97
2022-08-27T21:37:26.190Z,100497.78
2022-08-27T21:39:56.616Z,100502.22
2022-08-27T21:42:35.815Z,100507.91
2022-08-27T21:45:12.374Z,100492.56
2022-08-27T21:47:48.387Z,100495.75
2022-08-27T21:50:24.769Z,100497.00
2022-08-27T21:52:55.317Z,100495.38
2022-08-27T21:55:34.518Z,100499.84
2022-08-27T21:58:15.555Z,100495.75
2022-08-27T22:00:47.617Z,100494.94
2022-08-27T22:03:25.005Z,100508.38
2022-08-27T22:05:52.963Z,100506.78
2022-08-27T22:08:27.999Z,100512.81
2022-08-27T22:11:09.103Z,100511.22
2022-08-27T22:13:45.718Z,100501.94
2022-08-27T22:16:24.048Z,100511.22
2022-08-27T22:19:01.169Z,100504.72
2022-08-27T22:21:37.457Z,100504.78
2022-08-27T22:24:08.675Z,100509.63
2022-08-27T22:26:38.527Z,100508.78
2022-08-27T22:29:15.816Z,100511.63
2022-08-27T22:31:49.195Z,100519.38
2022-08-27T22:34:26.505Z,100509.63
2022-08-27T22:36:57.632Z,100521.78
2022-08-27T22:39:37.089Z,100512.88
2022-08-27T22:42:09.600Z,100513.69
2022-08-27T22:44:54.611Z,100504.34
2022-08-27T22:47:27.929Z,100498.34
2022-08-27T22:50:02.924Z,100507.19
2022-08-27T22:52:40.280Z,100508.78
2022-08-27T22:55:12.362Z,100509.63
2022-08-27T22:57:47.626Z,100502.28
2022-08-27T23:00:29.760Z,100499.03
2022-08-27T23:02:59.205Z,100495.38
2022-08-27T23:05:40.329Z,100486.47
2022-08-27T23:08:17.657Z,100492.97
2022-08-27T23:10:52.700Z,100482.44
2022-08-27T23:13:32.662Z,100486.16
2022-08-27T23:16:09.722Z,100488.53
2022-08-27T23:18:42.745Z,100484.88
2022-08-27T23:21:21.653Z,100486.94
2022-08-27T23:23:58.535Z,100490.56
2022-08-27T23:26:47.324Z,100491.38
2022-08-27T23:29:22.634Z,100478.50
2022-08-27T23:32:00.260Z,100484.56
2022-08-27T23:34:36.695Z,100491.38
2022-08-27T23:37:15.448Z,100489.31
2022-08-27T23:39:53.760Z,100490.19
2022-08-27T23:42:28.955Z,100492.22
2022-08-27T23:45:01.330Z,100498.72
2022-08-27T23:47:37.705Z,100495.06
2022-08-27T23:50:13.538Z,100500.31
2022-08-27T23:52:49.554Z,100494.28
2022-08-27T23:55:25.080Z,100489.38
2022-08-27T23:58:08.894Z,100481.28
